sensor_id;sensor_type;location;lat;lon;timestamp;pressure;altitude;pressure_sealevel;temperature;humidity
60244;BME280;46106;51.468;5.814;2023-07-09T00:02:16;101377.94;;;23.20;100.00
60244;BME280;46106;51.468;5.814;2023-07-09T00:04:42;101375.13;;;23.20;100.00
60244;BME280;46106;51.468;5.814;2023-07-09T00:07:17;101378.50;;;23.15;100.00
60244;BME280;46106;51.468;5.814;2023-07-09T00:09:43;101372.63;;;23.10;100.00
60244;BME280;46106;51.468;5.814;2023-07-09T00:12:16;101384.50;;;23.12;100.00
60244;BME280;46106;51.468;5.814;2023-07-09T00:14:42;101372.81;;;23.08;100.00
60244;BME280;46106;51.468;5.814;2023-07-09T00:17:21;101375.19;;;22.97;100.00
60244;BME280;46106;51.468;5.814;2023-07-09T00:19:48;101362.75;;;22.84;100.00
60244;BME280;46106;51.468;5.814;2023-07-09T00:22:17;101377.00;;;22.89;100.00
60244;BME280;46106;51.468;5.814;2023-07-09T00:24:50;101373.56;;;23.02;100.00
60244;BME280;46106;51.468;5.814;2023-07-09T00:27:28;101372.84;;;22.85;100.00
60244;BME280;46106;51.468;5.814;2023-07-09T00:29:55;101379.50;;;22.46;100.00
60244;BME280;46106;51.468;5.814;2023-07-09T00:32:21;101378.31;;;22.17;100.00
60244;BME280;46106;51.468;5.814;2023-07-09T00:34:47;101386.09;;;22.30;100.00
60244;BME280;46106;51.468;5.814;2023-07-09T00:37:20;101384.69;;;22.26;100.00
60244;BME280;46106;51.468;5.814;2023-07-09T00:39:47;101369.22;;;21.92;100.00
60244;BME280;46106;51.468;5.814;2023-07-09T00:42:20;101380.00;;;22.18;100.00
60244;BME280;46106;51.468;5.814;2023-07-09T00:44:49;101374.78;;;22.24;100.00
60244;BME280;46106;51.468;5.814;2023-07-09T00:47:47;101378.97;;;22.19;100.00
60244;BME280;46106;51.468;5.814;2023-07-09T00:50:45;101381.00;;;22.02;100.00
60244;BME280;46106;51.468;5.814;2023-07-09T00:53:30;101378.13;;;22.19;100.00
60244;BME280;46106;51.468;5.814;2023-07-09T00:56:02;101390.88;;;22.13;100.00
60244;BME280;46106;51.468;5.814;2023-07-09T00:58:31;101391.16;;;22.18;100.00
60244;BME280;46106;51.468;5.814;2023-07-09T01:01:04;101376.72;;;22.15;100.00
60244;BME280;46106;51.468;5.814;2023-07-09T01:04:04;101390.69;;;22.15;100.00
60244;BME280;46106;51.468;5.814;2023-07-09T01:06:37;101387.75;;;22.08;100.00
60244;BME280;46106;51.468;5.814;2023-07-09T01:09:04;101377.81;;;22.14;100.00
60244;BME280;46106;51.468;5.814;2023-07-09T01:11:31;101381.81;;;22.11;100.00
60244;BME280;46106;51.468;5.814;2023-07-09T01:14:00;101370.78;;;22.18;100.00
60244;BME280;46106;51.468;5.814;2023-07-09T01:16:42;101381.56;;;22.29;100.00
60244;BME280;46106;51.468;5.814;2023-07-09T01:19:08;101389.59;;;22.24;100.00
60244;BME280;46106;51.468;5.814;2023-07-09T01:21:34;101380.97;;;22.11;100.00
60244;BME280;46106;51.468;5.814;2023-07-09T01:24:14;101377.56;;;22.24;100.00
60244;BME280;46106;51.468;5.814;2023-07-09T01:26:40;101390.06;;;22.28;100.00
60244;BME280;46106;51.468;5.814;2023-07-09T01:29:06;101377.84;;;22.37;100.00
60244;BME280;46106;51.468;5.814;2023-07-09T01:31:31;101376.75;;;22.38;100.00
60244;BME280;46106;51.468;5.814;2023-07-09T01:33:57;101375.81;;;22.23;100.00
60244;BME280;46106;51.468;5.814;2023-07-09T01:36:24;101379.53;;;22.15;100.00
60244;BME280;46106;51.468;5.814;2023-07-09T01:38:51;101371.66;;;22.18;100.00
60244;BME280;46106;51.468;5.814;2023-07-09T01:41:19;101379.03;;;22.11;100.00
60244;BME280;46106;51.468;5.814;2023-07-09T01:43:45;101386.34;;;22.12;100.00
60244;BME280;46106;51.468;5.814;2023-07-09T01:46:12;101362.72;;;22.00;100.00
60244;BME280;46106;51.468;5.814;2023-07-09T01:48:40;101365.09;;;22.11;100.00
60244;BME280;46106;51.468;5.814;2023-07-09T01:51:11;101388.66;;;22.09;100.00
60244;BME280;46106;51.468;5.814;2023-07-09T01:53:39;101385.28;;;22.13;100.00
60244;BME280;46106;51.468;5.814;2023-07-09T01:56:05;101385.22;;;22.21;100.00
60244;BME280;46106;51.468;5.814;2023-07-09T01:58:33;101380.06;;;22.10;100.00
60244;BME280;46106;51.468;5.814;2023-07-09T02:01:01;101391.84;;;22.29;100.00
60244;BME280;46106;51.468;5.814;2023-07-09T02:03:27;101376.72;;;22.15;100.00
60244;BME280;46106;51.468;5.814;2023-07-09T02:05:53;101388.59;;;22.17;100.00
60244;BME280;46106;51.468;5.814;2023-07-09T02:08:19;101388.13;;;22.05;100.00
60244;BME280;46106;51.468;5.814;2023-07-09T02:10:48;101394.81;;;21.96;100.00
60244;BME280;46106;51.468;5.814;2023-07-09T02:13:13;101390.88;;;21.82;100.00
60244;BME280;46106;51.468;5.814;2023-07-09T02:15:39;101392.63;;;21.83;100.00
60244;BME280;46106;51.468;5.814;2023-07-09T02:18:10;101398.94;;;21.77;100.00
60244;BME280;46106;51.468;5.814;2023-07-09T02:20:36;101400.13;;;21.82;100.00
60244;BME280;46106;51.468;5.814;2023-07-09T02:23:02;101393.72;;;21.74;100.00
60244;BME280;46106;51.468;5.814;2023-07-09T02:25:28;101398.66;;;21.63;100.00
60244;BME280;46106;51.468;5.814;2023-07-09T02:27:53;101403.03;;;21.50;100.00
60244;BME280;46106;51.468;5.814;2023-07-09T02:30:19;101393.13;;;21.47;100.00
60244;BME280;46106;51.468;5.814;2023-07-09T02:32:44;101390.72;;;21.36;100.00
60244;BME280;46106;51.468;5.814;2023-07-09T02:35:10;101387.03;;;21.43;100.00
60244;BME280;46106;51.468;5.814;2023-07-09T02:37:35;101400.06;;;21.51;100.00
60244;BME280;46106;51.468;5.814;2023-07-09T02:40:02;101388.25;;;21.41;100.00
60244;BME280;46106;51.468;5.814;2023-07-09T02:42:29;101398.88;;;21.54;100.00
60244;BME280;46106;51.468;5.814;2023-07-09T02:44:55;101389.13;;;21.41;100.00
60244;BME280;46106;51.468;5.814;2023-07-09T02:47:20;101390.88;;;21.34;100.00
60244;BME280;46106;51.468;5.814;2023-07-09T02:49:46;101395.44;;;21.35;100.00
60244;BME280;46106;51.468;5.814;2023-07-09T02:52:12;101397.34;;;21.26;100.00
60244;BME280;46106;51.468;5.814;2023-07-09T02:54:37;101404.13;;;21.32;100.00
60244;BME280;46106;51.468;5.814;2023-07-09T02:57:03;101398.75;;;21.30;100.00
60244;BME280;46106;51.468;5.814;2023-07-09T02:59:28;101398.09;;;21.20;100.00
60244;BME280;46106;51.468;5.814;2023-07-09T03:01:55;101380.84;;;21.08;100.00
60244;BME280;46106;51.468;5.814;2023-07-09T03:04:21;101388.88;;;21.11;100.00
60244;BME280;46106;51.468;5.814;2023-07-09T03:06:47;101398.63;;;21.16;100.00
60244;BME280;46106;51.468;5.814;2023-07-09T03:09:13;101395.69;;;21.09;100.00
60244;BME280;46106;51.468;5.814;2023-07-09T03:11:38;101409.94;;;21.06;100.00
60244;BME280;46106;51.468;5.814;2023-07-09T03:14:04;101398.84;;;20.89;100.00
60244;BME280;46106;51.468;5.814;2023-07-09T03:16:32;101402.84;;;20.87;100.00
60244;BME280;46106;51.468;5.814;2023-07-09T03:18:59;101399.53;;;20.91;100.00
60244;BME280;46106;51.468;5.814;2023-07-09T03:21:27;101382.28;;;20.96;100.00
60244;BME280;46106;51.468;5.814;2023-07-09T03:23:53;101409.25;;;21.04;100.00
60244;BME280;46106;51.468;5.814;2023-07-09T03:26:19;101402.31;;;20.91;100.00
60244;BME280;46106;51.468;5.814;2023-07-09T03:28:45;101410.34;;;20.78;100.00
60244;BME280;46106;51.468;5.814;2023-07-09T03:31:10;101408.91;;;20.90;100.00
60244;BME280;46106;51.468;5.814;2023-07-09T03:33:36;101410.16;;;20.80;100.00
60244;BME280;46106;51.468;5.814;2023-07-09T03:36:03;101405.13;;;20.75;100.00
60244;BME280;46106;51.468;5.814;2023-07-09T03:38:29;101402.47;;;20.90;100.00
60244;BME280;46106;51.468;5.814;2023-07-09T03:40:55;101405.63;;;20.87;100.00
60244;BME280;46106;51.468;5.814;2023-07-09T03:43:22;101403.34;;;20.74;100.00
60244;BME280;46106;51.468;5.814;2023-07-09T03:45:48;101406.31;;;20.72;100.00
60244;BME280;46106;51.468;5.814;2023-07-09T03:48:14;101413.81;;;20.72;100.00
60244;BME280;46106;51.468;5.814;2023-07-09T03:50:43;101405.63;;;20.70;100.00
60244;BME280;46106;51.468;5.814;2023-07-09T03:53:09;101411.53;;;20.75;100.00
60244;BME280;46106;51.468;5.814;2023-07-09T03:55:34;101404.94;;;20.77;100.00
60244;BME280;46106;51.468;5.814;2023-07-09T03:58:00;101414.66;;;20.81;100.00
60244;BME280;46106;51.468;5.814;2023-07-09T04:00:28;101405.25;;;20.90;100.00
60244;BME280;46106;51.468;5.814;2023-07-09T04:02:53;101413.81;;;20.80;100.00
60244;BME280;46106;51.468;5.814;2023-07-09T04:05:20;101429.31;;;20.66;100.00
60244;BME280;46106;51.468;5.814;2023-07-09T04:07:45;101404.44;;;20.65;100.00
60244;BME280;46106;51.468;5.814;2023-07-09T04:10:13;101409.28;;;20.79;100.00
60244;BME280;46106;51.468;5.814;2023-07-09T04:12:39;101407.03;;;20.66;100.00
60244;BME280;46106;51.468;5.814;2023-07-09T04:15:05;101410.66;;;20.50;100.00
60244;BME280;46106;51.468;5.814;2023-07-09T04:17:31;101418.66;;;20.37;100.00
60244;BME280;46106;51.468;5.814;2023-07-09T04:19:57;101408.56;;;20.61;100.00
60244;BME280;46106;51.468;5.814;2023-07-09T04:22:22;101416.59;;;20.72;100.00
60244;BME280;46106;51.468;5.814;2023-07-09T04:24:48;101410.34;;;20.70;100.00
60244;BME280;46106;51.468;5.814;2023-07-09T04:27:15;101414.47;;;20.82;100.00
60244;BME280;46106;51.468;5.814;2023-07-09T04:29:41;101411.00;;;20.80;100.00
60244;BME280;46106;51.468;5.814;2023-07-09T04:32:08;101407.38;;;20.71;100.00
60244;BME280;46106;51.468;5.814;2023-07-09T04:34:36;101405.97;;;20.84;100.00
60244;BME280;46106;51.468;5.814;2023-07-09T04:37:05;101398.34;;;20.69;100.00
60244;BME280;46106;51.468;5.814;2023-07-09T04:39:32;101395.19;;;20.72;100.00
60244;BME280;46106;51.468;5.814;2023-07-09T04:41:59;101396.25;;;20.71;100.00
60244;BME280;46106;51.468;5.814;2023-07-09T04:44:24;101412.75;;;20.89;100.00
60244;BME280;46106;51.468;5.814;2023-07-09T04:46:50;101397.25;;;20.95;100.00
60244;BME280;46106;51.468;5.814;2023-07-09T04:49:16;101403.28;;;21.15;100.00
60244;BME280;46106;51.468;5.814;2023-07-09T04:51:41;101394.44;;;21.11;100.00
60244;BME280;46106;51.468;5.814;2023-07-09T04:54:07;101408.63;;;21.41;100.00
60244;BME280;46106;51.468;5.814;2023-07-09T04:56:33;101411.59;;;21.56;100.00
60244;BME280;46106;51.468;5.814;2023-07-09T04:58:58;101410.16;;;21.60;100.00
60244;BME280;46106;51.468;5.814;2023-07-09T05:01:24;101412.44;;;21.57;100.00
60244;BME280;46106;51.468;5.814;2023-07-09T05:03:49;101412.00;;;21.76;100.00
60244;BME280;46106;51.468;5.814;2023-07-09T05:06:15;101410.41;;;21.82;100.00
60244;BME280;46106;51.468;5.814;2023-07-09T05:08:40;101409.84;;;21.87;100.00
60244;BME280;46106;51.468;5.814;2023-07-09T05:11:07;101409.31;;;21.91;100.00
60244;BME280;46106;51.468;5.814;2023-07-09T05:13:33;101410.25;;;22.07;100.00
60244;BME280;46106;51.468;5.814;2023-07-09T05:15:58;101418.44;;;22.08;100.00
60244;BME280;46106;51.468;5.814;2023-07-09T05:18:24;101404.09;;;22.19;100.00
60244;BME280;46106;51.468;5.814;2023-07-09T05:20:49;101405.22;;;22.02;100.00
60244;BME280;46106;51.468;5.814;2023-07-09T05:23:15;101420.25;;;22.32;100.00
60244;BME280;46106;51.468;5.814;2023-07-09T05:25:40;101419.00;;;22.58;100.00
60244;BME280;46106;51.468;5.814;2023-07-09T05:28:06;101410.16;;;22.69;100.00
60244;BME280;46106;51.468;5.814;2023-07-09T05:30:32;101413.22;;;22.83;100.00
60244;BME280;46106;51.468;5.814;2023-07-09T05:32:58;101418.81;;;22.98;100.00
60244;BME280;46106;51.468;5.814;2023-07-09T05:35:25;101429.75;;;23.07;100.00
60244;BME280;46106;51.468;5.814;2023-07-09T05:37:54;101413.69;;;23.39;100.00
60244;BME280;46106;51.468;5.814;2023-07-09T05:40:20;101419.97;;;23.86;100.00
60244;BME280;46106;51.468;5.814;2023-07-09T05:42:46;101404.97;;;23.94;100.00
60244;BME280;46106;51.468;5.814;2023-07-09T05:45:12;101407.38;;;24.55;100.00
60244;BME280;46106;51.468;5.814;2023-07-09T05:47:37;101420.31;;;24.77;100.00
60244;BME280;46106;51.468;5.814;2023-07-09T05:50:03;101415.25;;;24.88;100.00
60244;BME280;46106;51.468;5.814;2023-07-09T05:52:29;101412.31;;;24.96;100.00
60244;BME280;46106;51.468;5.814;2023-07-09T05:54:55;101402.34;;;25.22;100.00
60244;BME280;46106;51.468;5.814;2023-07-09T05:57:20;101407.84;;;25.08;100.00
60244;BME280;46106;51.468;5.814;2023-07-09T05:59:46;101413.53;;;25.43;100.00
60244;BME280;46106;51.468;5.814;2023-07-09T06:02:13;101417.25;;;25.57;100.00
60244;BME280;46106;51.468;5.814;2023-07-09T06:04:39;101418.91;;;25.86;100.00
60244;BME280;46106;51.468;5.814;2023-07-09T06:07:05;101421.22;;;26.18;100.00
60244;BME280;46106;51.468;5.814;2023-07-09T06:09:31;101421.00;;;26.13;100.00
60244;BME280;46106;51.468;5.814;2023-07-09T06:11:57;101416.97;;;26.55;100.00
60244;BME280;46106;51.468;5.814;2023-07-09T06:14:23;101411.41;;;26.69;100.00
60244;BME280;46106;51.468;5.814;2023-07-09T06:16:51;101420.94;;;26.74;100.00
60244;BME280;46106;51.468;5.814;2023-07-09T06:19:17;101420.06;;;27.14;100.00
60244;BME280;46106;51.468;5.814;2023-07-09T06:21:42;101428.44;;;27.54;100.00
60244;BME280;46106;51.468;5.814;2023-07-09T06:24:08;101418.75;;;27.43;100.00
60244;BME280;46106;51.468;5.814;2023-07-09T06:26:34;101425.16;;;27.64;100.00
60244;BME280;46106;51.468;5.814;2023-07-09T06:28:59;101430.47;;;27.92;100.00
60244;BME280;46106;51.468;5.814;2023-07-09T06:31:25;101433.53;;;28.36;98.29
60244;BME280;46106;51.468;5.814;2023-07-09T06:33:51;101432.69;;;28.35;98.84
60244;BME280;46106;51.468;5.814;2023-07-09T06:36:18;101436.09;;;28.44;96.06
60244;BME280;46106;51.468;5.814;2023-07-09T06:38:44;101440.69;;;28.38;99.17
60244;BME280;46106;51.468;5.814;2023-07-09T06:41:11;101434.63;;;28.73;97.03
60244;BME280;46106;51.468;5.814;2023-07-09T06:43:36;101433.78;;;28.66;97.34
60244;BME280;46106;51.468;5.814;2023-07-09T06:46:06;101436.03;;;28.89;94.48
60244;BME280;46106;51.468;5.814;2023-07-09T06:48:32;101428.25;;;28.85;93.49
60244;BME280;46106;51.468;5.814;2023-07-09T06:50:59;101430.44;;;29.08;91.77
60244;BME280;46106;51.468;5.814;2023-07-09T06:53:26;101424.41;;;29.04;90.36
60244;BME280;46106;51.468;5.814;2023-07-09T06:55:52;101435.44;;;29.31;91.19
60244;BME280;46106;51.468;5.814;2023-07-09T06:58:24;101435.25;;;29.51;91.17
60244;BME280;46106;51.468;5.814;2023-07-09T07:00:51;101430.53;;;30.19;84.87
60244;BME280;46106;51.468;5.814;2023-07-09T07:03:17;101437.00;;;30.08;87.26
60244;BME280;46106;51.468;5.814;2023-07-09T07:05:47;101443.16;;;30.16;85.59
60244;BME280;46106;51.468;5.814;2023-07-09T07:08:19;101434.72;;;30.47;83.51
60244;BME280;46106;51.468;5.814;2023-07-09T07:10:47;101437.75;;;30.75;84.14
60244;BME280;46106;51.468;5.814;2023-07-09T07:13:13;101438.84;;;30.74;82.24
60244;BME280;46106;51.468;5.814;2023-07-09T07:15:40;101436.97;;;30.56;81.60
60244;BME280;46106;51.468;5.814;2023-07-09T07:18:06;101430.03;;;30.83;78.83
60244;BME280;46106;51.468;5.814;2023-07-09T07:20:33;101429.50;;;31.16;77.97
60244;BME280;46106;51.468;5.814;2023-07-09T07:22:59;101432.31;;;31.28;76.51
60244;BME280;46106;51.468;5.814;2023-07-09T07:25:25;101426.16;;;31.07;78.74
60244;BME280;46106;51.468;5.814;2023-07-09T07:27:51;101424.34;;;31.60;77.07
60244;BME280;46106;51.468;5.814;2023-07-09T07:30:17;101424.72;;;31.40;77.64
60244;BME280;46106;51.468;5.814;2023-07-09T07:32:47;101422.03;;;31.98;72.46
60244;BME280;46106;51.468;5.814;2023-07-09T07:35:13;101418.00;;;31.82;71.51
60244;BME280;46106;51.468;5.814;2023-07-09T07:37:40;101425.28;;;30.95;76.80
60244;BME280;46106;51.468;5.814;2023-07-09T07:40:06;101426.91;;;31.62;75.81
60244;BME280;46106;51.468;5.814;2023-07-09T07:42:32;101420.75;;;31.77;73.59
60244;BME280;46106;51.468;5.814;2023-07-09T07:44:57;101427.91;;;32.49;70.60
60244;BME280;46106;51.468;5.814;2023-07-09T07:47:23;101419.78;;;32.12;71.69
60244;BME280;46106;51.468;5.814;2023-07-09T07:49:50;101422.06;;;32.55;68.28
60244;BME280;46106;51.468;5.814;2023-07-09T07:52:15;101421.69;;;32.64;67.17
60244;BME280;46106;51.468;5.814;2023-07-09T07:54:41;101420.75;;;32.75;65.52
60244;BME280;46106;51.468;5.814;2023-07-09T07:57:08;101430.56;;;32.27;69.70
60244;BME280;46106;51.468;5.814;2023-07-09T07:59:35;101421.25;;;32.72;66.94
60244;BME280;46106;51.468;5.814;2023-07-09T08:02:02;101419.97;;;32.34;67.86
60244;BME280;46106;51.468;5.814;2023-07-09T08:04:28;101423.91;;;33.46;63.72
60244;BME280;46106;51.468;5.814;2023-07-09T08:06:53;101429.44;;;33.02;67.45
60244;BME280;46106;51.468;5.814;2023-07-09T08:09:19;101417.00;;;33.59;63.29
60244;BME280;46106;51.468;5.814;2023-07-09T08:11:44;101429.84;;;33.45;64.13
60244;BME280;46106;51.468;5.814;2023-07-09T08:14:10;101422.22;;;32.94;68.19
60244;BME280;46106;51.468;5.814;2023-07-09T08:16:36;101418.38;;;33.74;63.74
60244;BME280;46106;51.468;5.814;2023-07-09T08:19:01;101418.44;;;33.79;61.62
60244;BME280;46106;51.468;5.814;2023-07-09T08:21:27;101419.03;;;34.25;57.79
60244;BME280;46106;51.468;5.814;2023-07-09T08:23:53;101424.25;;;32.65;58.50
60244;BME280;46106;51.468;5.814;2023-07-09T08:26:18;101413.34;;;32.91;59.42
60244;BME280;46106;51.468;5.814;2023-07-09T08:28:43;101419.81;;;33.98;57.10
60244;BME280;46106;51.468;5.814;2023-07-09T08:31:09;101415.97;;;33.48;56.24
60244;BME280;46106;51.468;5.814;2023-07-09T08:33:34;101413.13;;;34.10;54.99
60244;BME280;46106;51.468;5.814;2023-07-09T08:36:04;101418.28;;;34.62;51.66
60244;BME280;46106;51.468;5.814;2023-07-09T08:38:29;101408.59;;;33.86;51.41
60244;BME280;46106;51.468;5.814;2023-07-09T08:40:59;101403.69;;;33.82;52.16
60244;BME280;46106;51.468;5.814;2023-07-09T08:47:26;101402.13;;;33.91;51.94
60244;BME280;46106;51.468;5.814;2023-07-09T08:49:44;101405.38;;;34.76;50.35
60244;BME280;46106;51.468;5.814;2023-07-09T08:52:36;101410.50;;;35.17;47.17
60244;BME280;46106;51.468;5.814;2023-07-09T08:55:14;101405.78;;;34.36;50.27
60244;BME280;46106;51.468;5.814;2023-07-09T08:57:44;101405.41;;;34.54;49.25
60244;BME280;46106;51.468;5.814;2023-07-09T09:00:21;101406.31;;;34.33;46.89
60244;BME280;46106;51.468;5.814;2023-07-09T09:02:54;101400.56;;;34.82;46.22
60244;BME280;46106;51.468;5.814;2023-07-09T09:05:23;101404.91;;;34.35;47.20
60244;BME280;46106;51.468;5.814;2023-07-09T09:13:30;101400.16;;;35.06;45.01
60244;BME280;46106;51.468;5.814;2023-07-09T09:16:01;101405.19;;;34.88;46.08
60244;BME280;46106;51.468;5.814;2023-07-09T09:18:40;101391.03;;;34.71;46.70
60244;BME280;46106;51.468;5.814;2023-07-09T09:21:17;101397.22;;;34.63;48.20
60244;BME280;46106;51.468;5.814;2023-07-09T09:23:49;101412.22;;;35.56;44.51
60244;BME280;46106;51.468;5.814;2023-07-09T09:26:22;101399.63;;;35.46;45.51
60244;BME280;46106;51.468;5.814;2023-07-09T09:28:49;101399.09;;;35.12;44.77
60244;BME280;46106;51.468;5.814;2023-07-09T09:31:14;101403.63;;;35.45;43.57
60244;BME280;46106;51.468;5.814;2023-07-09T09:33:46;101401.72;;;34.86;44.77
60244;BME280;46106;51.468;5.814;2023-07-09T09:36:20;101410.53;;;35.22;43.80
60244;BME280;46106;51.468;5.814;2023-07-09T09:38:46;101408.63;;;34.95;44.53
60244;BME280;46106;51.468;5.814;2023-07-09T09:41:17;101391.84;;;35.31;43.88
60244;BME280;46106;51.468;5.814;2023-07-09T09:43:45;101401.88;;;35.39;44.45
60244;BME280;46106;51.468;5.814;2023-07-09T09:46:31;101399.88;;;35.02;43.37
60244;BME280;46106;51.468;5.814;2023-07-09T09:49:01;101395.25;;;34.96;43.05
60244;BME280;46106;51.468;5.814;2023-07-09T09:51:28;101393.19;;;36.30;40.06
60244;BME280;46106;51.468;5.814;2023-07-09T09:54:01;101388.69;;;35.76;41.84
60244;BME280;46106;51.468;5.814;2023-07-09T09:56:30;101377.22;;;35.65;41.10
60244;BME280;46106;51.468;5.814;2023-07-09T09:58:57;101381.81;;;36.55;40.48
60244;BME280;46106;51.468;5.814;2023-07-09T10:01:29;101372.28;;;36.14;40.93
60244;BME280;46106;51.468;5.814;2023-07-09T10:03:57;101359.00;;;36.55;38.72
60244;BME280;46106;51.468;5.814;2023-07-09T10:06:35;101355.41;;;35.39;40.94
60244;BME280;46106;51.468;5.814;2023-07-09T10:11:47;101380.28;;;36.17;42.64
60244;BME280;46106;51.468;5.814;2023-07-09T10:14:25;101375.06;;;35.88;42.32
60244;BME280;46106;51.468;5.814;2023-07-09T10:17:00;101369.50;;;35.56;45.00
60244;BME280;46106;51.468;5.814;2023-07-09T10:19:44;101369.50;;;37.32;40.89
60244;BME280;46106;51.468;5.814;2023-07-09T10:22:35;101375.81;;;37.13;41.08
60244;BME280;46106;51.468;5.814;2023-07-09T10:28:26;101368.97;;;36.53;44.12
60244;BME280;46106;51.468;5.814;2023-07-09T10:31:17;101362.88;;;36.03;43.30
60244;BME280;46106;51.468;5.814;2023-07-09T10:39:37;101367.53;;;36.66;39.96
60244;BME280;46106;51.468;5.814;2023-07-09T10:42:10;101368.69;;;36.49;41.48
60244;BME280;46106;51.468;5.814;2023-07-09T10:44:41;101374.94;;;36.51;39.44
60244;BME280;46106;51.468;5.814;2023-07-09T10:47:29;101358.38;;;35.59;42.60
60244;BME280;46106;51.468;5.814;2023-07-09T10:49:56;101362.72;;;35.67;41.93
60244;BME280;46106;51.468;5.814;2023-07-09T10:52:32;101369.69;;;36.07;41.09
60244;BME280;46106;51.468;5.814;2023-07-09T10:55:28;101371.22;;;36.35;39.88
60244;BME280;46106;51.468;5.814;2023-07-09T10:58:02;101363.00;;;35.23;41.81
60244;BME280;46106;51.468;5.814;2023-07-09T11:00:36;101367.75;;;35.49;40.03
60244;BME280;46106;51.468;5.814;2023-07-09T11:03:33;101364.22;;;35.85;40.43
60244;BME280;46106;51.468;5.814;2023-07-09T11:06:01;101355.41;;;35.86;40.11
60244;BME280;46106;51.468;5.814;2023-07-09T11:08:34;101345.75;;;35.98;40.73
60244;BME280;46106;51.468;5.814;2023-07-09T11:11:05;101344.88;;;35.97;41.15
60244;BME280;46106;51.468;5.814;2023-07-09T11:13:42;101346.53;;;35.78;40.26
60244;BME280;46106;51.468;5.814;2023-07-09T11:16:14;101342.09;;;35.44;39.24
60244;BME280;46106;51.468;5.814;2023-07-09T11:18:54;101336.88;;;35.31;41.01
60244;BME280;46106;51.468;5.814;2023-07-09T11:21:20;101345.59;;;35.67;40.94
60244;BME280;46106;51.468;5.814;2023-07-09T11:23:50;101353.69;;;35.91;40.75
60244;BME280;46106;51.468;5.814;2023-07-09T11:26:34;101361.00;;;35.71;40.61
60244;BME280;46106;51.468;5.814;2023-07-09T11:31:39;101360.31;;;35.48;41.06
60244;BME280;46106;51.468;5.814;2023-07-09T11:36:55;101360.69;;;35.62;41.43
60244;BME280;46106;51.468;5.814;2023-07-09T11:41:48;101365.78;;;36.29;40.37
60244;BME280;46106;51.468;5.814;2023-07-09T11:44:19;101365.34;;;35.84;41.60
60244;BME280;46106;51.468;5.814;2023-07-09T11:49:17;101369.41;;;35.93;40.15
60244;BME280;46106;51.468;5.814;2023-07-09T11:51:45;101369.03;;;35.26;41.34
60244;BME280;46106;51.468;5.814;2023-07-09T11:54:12;101366.50;;;35.30;39.67
60244;BME280;46106;51.468;5.814;2023-07-09T11:56:39;101368.91;;;35.11;40.73
60244;BME280;46106;51.468;5.814;2023-07-09T11:59:05;101378.50;;;35.00;40.33
60244;BME280;46106;51.468;5.814;2023-07-09T12:01:51;101370.59;;;35.12;41.03
60244;BME280;46106;51.468;5.814;2023-07-09T12:04:21;101374.38;;;35.18;39.04
60244;BME280;46106;51.468;5.814;2023-07-09T12:06:47;101379.16;;;35.12;41.10
60244;BME280;46106;51.468;5.814;2023-07-09T12:09:18;101377.06;;;34.97;41.40
60244;BME280;46106;51.468;5.814;2023-07-09T12:11:46;101379.28;;;34.90;41.79
60244;BME280;46106;51.468;5.814;2023-07-09T12:14:15;101372.38;;;34.81;40.99
60244;BME280;46106;51.468;5.814;2023-07-09T12:16:43;101366.59;;;35.03;41.34
60244;BME280;46106;51.468;5.814;2023-07-09T12:19:16;101373.59;;;34.90;41.13
60244;BME280;46106;51.468;5.814;2023-07-09T12:21:43;101356.25;;;34.91;41.26
60244;BME280;46106;51.468;5.814;2023-07-09T12:24:35;101357.38;;;34.63;42.42
60244;BME280;46106;51.468;5.814;2023-07-09T12:27:02;101351.44;;;34.97;42.22
60244;BME280;46106;51.468;5.814;2023-07-09T12:29:34;101342.75;;;34.76;43.29
60244;BME280;46106;51.468;5.814;2023-07-09T12:32:10;101328.09;;;34.95;43.22
60244;BME280;46106;51.468;5.814;2023-07-09T12:34:36;101320.88;;;34.82;42.39
60244;BME280;46106;51.468;5.814;2023-07-09T12:37:02;101324.94;;;34.91;43.20
60244;BME280;46106;51.468;5.814;2023-07-09T12:39:29;101319.59;;;34.68;43.02
60244;BME280;46106;51.468;5.814;2023-07-09T12:42:00;101317.22;;;34.87;42.58
60244;BME280;46106;51.468;5.814;2023-07-09T12:44:26;101313.78;;;34.52;42.32
60244;BME280;46106;51.468;5.814;2023-07-09T12:46:53;101325.84;;;34.32;41.13
60244;BME280;46106;51.468;5.814;2023-07-09T12:49:26;101319.19;;;34.21;41.34
60244;BME280;46106;51.468;5.814;2023-07-09T12:52:00;101326.50;;;34.17;41.47
60244;BME280;46106;51.468;5.814;2023-07-09T12:54:30;101328.25;;;34.46;40.33
60244;BME280;46106;51.468;5.814;2023-07-09T12:56:59;101329.00;;;34.36;39.86
60244;BME280;46106;51.468;5.814;2023-07-09T12:59:25;101326.81;;;33.94;40.69
60244;BME280;46106;51.468;5.814;2023-07-09T13:01:59;101324.47;;;33.85;41.29
60244;BME280;46106;51.468;5.814;2023-07-09T13:04:33;101315.25;;;34.22;40.27
60244;BME280;46106;51.468;5.814;2023-07-09T13:07:01;101315.34;;;33.83;41.25
60244;BME280;46106;51.468;5.814;2023-07-09T13:09:27;101323.91;;;33.66;42.02
60244;BME280;46106;51.468;5.814;2023-07-09T13:11:54;101320.72;;;34.07;42.07
60244;BME280;46106;51.468;5.814;2023-07-09T13:14:22;101323.47;;;33.75;43.34
60244;BME280;46106;51.468;5.814;2023-07-09T13:16:48;101324.19;;;33.65;45.39
60244;BME280;46106;51.468;5.814;2023-07-09T13:19:13;101327.16;;;33.53;47.66
60244;BME280;46106;51.468;5.814;2023-07-09T13:21:40;101320.44;;;33.37;49.30
60244;BME280;46106;51.468;5.814;2023-07-09T13:24:22;101314.56;;;32.88;51.15
60244;BME280;46106;51.468;5.814;2023-07-09T13:26:48;101326.75;;;32.54;53.03